National Weather Service Raw Text Product

Displaying AFOS PIL: TAFMCW Received: 2018-01-12 05:29 UTC


707 
FTUS43 KDMX 120529
TAFMCW
TAF
KMCW 120529Z 1206/1306 33020G28KT P6SM BKN012
     FM120900 34015KT P6SM SKC
     FM122300 34009KT P6SM BKN100=